This is the latest recevied weather packets stored in our database for station/object IZ0VWB-3. If no packets are shown the sender has not sent any weather packets the latest 10 day(s).
| Time | Temp. | Humidity | Pressure | Rain* | Wind** | Luminosity | Snow |
|---|---|---|---|---|---|---|---|
| 1777831724 | 17.78° C | 63% | 1004.7 hPa | 0 mm | - | - | - |
| 1777831125 | 18.33° C | 59% | 1004.5 hPa | 0 mm | - | - | - |
| 1777830526 | 18.33° C | 54% | 1004.5 hPa | 0 mm | - | - | - |
| 1777829924 | 18.33° C | 54% | 1004.5 hPa | 0 mm | - | - | - |
| 1777829325 | 18.89° C | 53% | 1004.4 hPa | 0 mm | - | - | - |
| 1777828725 | 18.89° C | 53% | 1004.4 hPa | 0 mm | - | - | - |
| 1777828119 | 19.44° C | 53% | 1004.4 hPa | 0 mm | - | - | - |
| 1777827519 | 19.44° C | 52% | 1004.5 hPa | 0 mm | - | - | - |
| 1777826918 | 20° C | 51% | 1004.4 hPa | 0 mm | - | - | - |
| 1777826319 | 21.11° C | 49% | 1004.4 hPa | 0 mm | - | - | - |
| 1777825719 | 21.67° C | 48% | 1004.3 hPa | 0 mm | - | - | - |
| 1777825120 | 22.22° C | 48% | 1004.4 hPa | 0 mm | - | - | - |
| 1777824518 | 22.22° C | 48% | 1004.4 hPa | 0 mm | - | - | - |
| 1777823919 | 22.22° C | 48% | 1004.6 hPa | 0 mm | - | - | - |
| 1777823319 | 21.67° C | 50% | 1004.6 hPa | 0 mm | - | - | - |
| 1777822718 | 22.22° C | 50% | 1004.7 hPa | 0 mm | - | - | - |
| 1777822118 | 22.22° C | 50% | 1004.8 hPa | 0 mm | - | - | - |
| 1777821519 | 21.67° C | 51% | 1004.8 hPa | 0 mm | - | - | - |
| 1777820919 | 22.22° C | 50% | 1005 hPa | 0 mm | - | - | - |
| 1777820317 | 21.67° C | 52% | 1005 hPa | 0 mm | - | - | - |
| 1777819719 | 21.67° C | 53% | 1005.2 hPa | 0 mm | - | - | - |
| 1777819117 | 21.67° C | 53% | 1005.3 hPa | 0 mm | - | - | - |
| 1777818518 | 21.67° C | 52% | 1005.5 hPa | 0 mm | - | - | - |
| 1777817918 | 21.67° C | 52% | 1005.5 hPa | 0 mm | - | - | - |
| 1777817317 | 21.67° C | 52% | 1005.7 hPa | 0 mm | - | - | - |
* Rain latest hour (hover to see other rain measurements)
** Current wind speed in m/s (hover to see current wind gust speed)